createdAt,value
2022-09-27T00:01:44.773Z,12.53
2022-09-27T00:06:47.425Z,15.13
2022-09-27T00:11:50.477Z,18.13
2022-09-27T00:16:53.005Z,15.50
2022-09-27T00:21:56.427Z,14.40
2022-09-27T00:26:59.541Z,15.43
2022-09-27T00:32:02.359Z,14.13
2022-09-27T00:37:05.173Z,16.00
2022-09-27T00:42:12.605Z,15.23
2022-09-27T00:47:15.665Z,14.53
2022-09-27T00:52:27.738Z,18.63
2022-09-27T00:57:30.993Z,18.37
2022-09-27T01:02:34.010Z,15.27
2022-09-27T01:07:37.004Z,16.20
2022-09-27T01:12:42.714Z,15.93
2022-09-27T01:17:52.950Z,15.97
2022-09-27T01:23:14.442Z,18.97
2022-09-27T01:28:17.282Z,18.57
2022-09-27T01:33:34.870Z,18.70
2022-09-27T01:38:43.971Z,17.17
2022-09-27T01:43:59.333Z,17.92
2022-09-27T01:49:10.973Z,17.90
2022-09-27T01:54:16.326Z,16.15
2022-09-27T01:59:59.729Z,16.80
2022-09-27T02:05:23.881Z,16.52
2022-09-27T02:10:35.013Z,15.63
2022-09-27T02:15:49.971Z,16.65
2022-09-27T02:21:05.425Z,14.25
2022-09-27T02:26:08.310Z,14.35
2022-09-27T02:31:11.160Z,14.50
2022-09-27T02:36:15.330Z,13.45
2022-09-27T02:41:18.974Z,11.80
2022-09-27T02:46:33.905Z,12.35
2022-09-27T02:51:39.818Z,14.07
2022-09-27T02:57:00.720Z,13.77
2022-09-27T03:02:41.589Z,13.88
2022-09-27T03:08:03.754Z,16.20
2022-09-27T03:13:06.871Z,15.50
2022-09-27T03:18:09.764Z,15.48
2022-09-27T03:23:32.782Z,16.95
2022-09-27T03:28:36.133Z,16.90
2022-09-27T03:33:39.009Z,17.45
2022-09-27T03:38:44.541Z,16.87
2022-09-27T03:43:51.838Z,17.30
2022-09-27T03:48:54.689Z,19.48
2022-09-27T03:53:57.703Z,18.77
2022-09-27T03:59:00.189Z,17.83
2022-09-27T04:04:08.791Z,19.38
2022-09-27T04:09:14.515Z,21.42
2022-09-27T04:14:31.071Z,16.40
2022-09-27T04:19:56.760Z,16.73
2022-09-27T04:24:59.752Z,20.30
2022-09-27T04:30:12.187Z,20.85
2022-09-27T04:35:55.841Z,21.60
2022-09-27T04:41:02.232Z,22.83
2022-09-27T04:46:09.226Z,21.70
2022-09-27T04:51:11.916Z,23.35
2022-09-27T04:56:16.115Z,23.33
2022-09-27T05:01:19.237Z,23.65
2022-09-27T05:06:40.492Z,24.10
2022-09-27T05:11:53.428Z,23.90
2022-09-27T05:17:08.396Z,25.10
2022-09-27T05:22:40.424Z,24.05
2022-09-27T05:27:44.420Z,25.48
2022-09-27T05:32:50.239Z,27.87
2022-09-27T05:38:15.961Z,27.40
2022-09-27T05:43:24.193Z,27.33
2022-09-27T05:48:30.486Z,27.55
2022-09-27T05:53:42.689Z,26.63
2022-09-27T05:58:54.376Z,27.03
2022-09-27T06:04:00.738Z,40.45
2022-09-27T06:09:29.993Z,29.88
2022-09-27T06:14:35.392Z,31.17
2022-09-27T06:19:44.436Z,30.97
2022-09-27T06:24:48.154Z,33.53
2022-09-27T06:29:58.714Z,32.67
2022-09-27T06:35:19.917Z,34.00
2022-09-27T06:40:22.874Z,32.75
2022-09-27T06:45:25.532Z,33.95
2022-09-27T06:50:47.906Z,33.47
2022-09-27T06:55:51.447Z,37.85
2022-09-27T07:00:54.203Z,42.33
2022-09-27T07:06:37.636Z,50.95
2022-09-27T07:11:51.139Z,62.58
2022-09-27T07:16:53.941Z,56.80
2022-09-27T07:21:56.581Z,55.97
2022-09-27T07:27:00.100Z,51.55
2022-09-27T07:32:04.154Z,54.17
2022-09-27T07:37:07.114Z,54.03
2022-09-27T07:42:15.311Z,54.03
2022-09-27T07:47:24.255Z,50.57
2022-09-27T07:52:44.088Z,52.90
2022-09-27T07:58:08.935Z,52.27
2022-09-27T08:03:15.437Z,47.67
2022-09-27T08:08:17.947Z,45.20
2022-09-27T08:13:22.838Z,48.03
2022-09-27T08:18:28.010Z,41.57
2022-09-27T08:23:30.494Z,49.83
2022-09-27T08:29:05.342Z,49.30
2022-09-27T08:34:14.134Z,46.00
2022-09-27T08:39:17.025Z,46.23
2022-09-27T08:44:43.507Z,44.37
2022-09-27T08:49:51.894Z,43.67
2022-09-27T08:54:56.265Z,41.83
2022-09-27T09:00:12.064Z,44.63
2022-09-27T09:05:21.292Z,37.67
2022-09-27T09:10:51.615Z,41.67
2022-09-27T09:15:58.279Z,39.00
2022-09-27T09:21:17.608Z,33.65
2022-09-27T09:26:29.344Z,36.10
2022-09-27T09:31:44.065Z,38.67
2022-09-27T09:36:50.459Z,29.05
2022-09-27T09:41:59.184Z,33.80
2022-09-27T09:47:02.775Z,33.10
2022-09-27T09:52:14.232Z,29.97
2022-09-27T09:57:20.207Z,27.57
2022-09-27T10:02:24.569Z,27.97
2022-09-27T10:07:29.748Z,23.27
2022-09-27T10:12:33.873Z,36.10
2022-09-27T10:17:40.277Z,22.63
2022-09-27T10:22:47.872Z,21.57
2022-09-27T10:28:08.010Z,22.57
2022-09-27T10:33:19.289Z,20.83
2022-09-27T10:38:33.333Z,21.75
2022-09-27T10:43:51.745Z,23.87
2022-09-27T10:49:19.919Z,22.37
2022-09-27T10:54:27.754Z,21.70
2022-09-27T10:59:34.041Z,27.07
2022-09-27T11:04:37.861Z,23.97
2022-09-27T11:09:54.963Z,24.97
2022-09-27T11:15:02.563Z,27.53
2022-09-27T11:20:18.244Z,23.77
2022-09-27T11:25:40.366Z,30.90
2022-09-27T11:30:45.872Z,26.87
2022-09-27T11:36:21.122Z,22.67
2022-09-27T11:41:30.267Z,21.57
2022-09-27T11:46:41.149Z,20.17
2022-09-27T11:52:04.281Z,20.87
2022-09-27T11:57:23.807Z,22.40
2022-09-27T12:02:45.010Z,23.40
2022-09-27T12:07:59.926Z,21.13
2022-09-27T12:13:03.386Z,20.60
2022-09-27T12:18:09.577Z,20.77
2022-09-27T12:23:12.668Z,21.03
2022-09-27T12:28:37.297Z,22.97
2022-09-27T12:33:44.738Z,21.57
2022-09-27T12:38:52.305Z,21.77
2022-09-27T12:43:56.244Z,24.97
2022-09-27T12:49:21.991Z,23.47
2022-09-27T12:54:38.162Z,25.63
2022-09-27T12:59:56.378Z,25.20
2022-09-27T13:04:58.978Z,26.45
2022-09-27T13:10:03.429Z,27.67
2022-09-27T13:15:13.873Z,27.43
2022-09-27T13:20:35.170Z,26.73
2022-09-27T13:25:56.018Z,21.67
2022-09-27T13:31:52.956Z,22.50
2022-09-27T13:36:56.876Z,23.43
2022-09-27T13:42:05.115Z,24.10
2022-09-27T13:47:11.854Z,26.10
2022-09-27T13:52:22.241Z,25.40
2022-09-27T13:57:41.101Z,21.43
2022-09-27T14:02:52.129Z,20.43
2022-09-27T14:07:55.598Z,22.53
2022-09-27T14:13:01.220Z,22.27
2022-09-27T14:18:04.736Z,21.37
2022-09-27T14:23:16.028Z,22.07
2022-09-27T14:28:24.781Z,23.33
2022-09-27T14:34:05.890Z,19.80
2022-09-27T14:39:13.359Z,19.13
2022-09-27T14:44:17.720Z,23.90
2022-09-27T14:49:24.745Z,20.53
2022-09-27T14:54:30.677Z,19.53
2022-09-27T14:59:38.017Z,18.77
2022-09-27T15:04:44.005Z,26.03
2022-09-27T15:09:47.162Z,21.30
2022-09-27T15:14:53.969Z,21.90
2022-09-27T15:20:01.612Z,19.93
2022-09-27T15:25:06.163Z,21.73
2022-09-27T15:30:17.329Z,20.50
2022-09-27T15:35:22.715Z,27.07
2022-09-27T15:40:43.685Z,21.57
2022-09-27T15:45:50.190Z,20.53
2022-09-27T15:50:53.195Z,19.47
2022-09-27T15:55:55.697Z,24.77
2022-09-27T16:00:59.557Z,23.38
2022-09-27T16:06:03.302Z,21.45
2022-09-27T16:11:06.202Z,20.60
2022-09-27T16:16:19.894Z,21.67
2022-09-27T16:21:22.502Z,22.07
2022-09-27T16:26:25.071Z,21.23
2022-09-27T16:31:27.805Z,24.40
2022-09-27T16:36:30.523Z,21.90
2022-09-27T16:41:33.709Z,21.77
2022-09-27T16:46:36.687Z,23.02
2022-09-27T16:51:58.229Z,22.60
2022-09-27T16:57:01.136Z,22.98
2022-09-27T17:02:07.201Z,23.60
2022-09-27T17:07:10.048Z,25.85
2022-09-27T17:12:13.229Z,25.17
2022-09-27T17:17:15.903Z,24.37
2022-09-27T17:22:18.558Z,26.50
2022-09-27T17:27:25.731Z,26.25
2022-09-27T17:32:29.268Z,25.75
2022-09-27T17:37:32.291Z,24.67
2022-09-27T17:42:35.575Z,26.03
2022-09-27T17:47:56.809Z,28.08
2022-09-27T17:52:59.993Z,26.10
2022-09-27T17:58:04.221Z,29.25
2022-09-27T18:03:08.626Z,27.35
2022-09-27T18:08:11.319Z,29.60
2022-09-27T18:13:13.965Z,28.42
2022-09-27T18:18:17.583Z,29.73
2022-09-27T18:23:20.383Z,45.27
2022-09-27T18:28:30.183Z,29.77
2022-09-27T18:33:34.059Z,29.53
2022-09-27T18:38:39.500Z,31.73
2022-09-27T18:43:43.572Z,50.17
2022-09-27T18:48:46.606Z,51.13
2022-09-27T18:53:53.740Z,39.95
2022-09-27T18:58:57.125Z,247.43
2022-09-27T19:04:00.561Z,161.00
2022-09-27T19:09:05.106Z,91.47
2022-09-27T19:14:08.065Z,38.42
2022-09-27T19:19:10.601Z,35.38
2022-09-27T19:24:14.122Z,38.03
2022-09-27T19:29:19.620Z,51.85
2022-09-27T19:34:22.319Z,48.95
2022-09-27T19:39:24.882Z,35.37
2022-09-27T19:44:27.737Z,44.10
2022-09-27T19:49:30.914Z,35.28
2022-09-27T19:54:33.654Z,45.10
2022-09-27T19:59:36.150Z,48.42
2022-09-27T20:04:39.078Z,47.40
2022-09-27T20:09:42.230Z,31.30
2022-09-27T20:14:45.375Z,32.38
2022-09-27T20:19:47.918Z,30.80
2022-09-27T20:24:50.458Z,31.57
2022-09-27T20:29:53.283Z,34.65
2022-09-27T20:34:55.882Z,31.67
2022-09-27T20:39:58.923Z,39.40
2022-09-27T20:45:01.784Z,47.60
2022-09-27T20:50:04.852Z,34.05
2022-09-27T20:55:09.790Z,31.13
2022-09-27T21:00:12.573Z,31.08
2022-09-27T21:05:19.013Z,32.65
2022-09-27T21:10:21.578Z,31.15
2022-09-27T21:15:24.131Z,32.72
2022-09-27T21:20:26.830Z,30.98
2022-09-27T21:25:29.492Z,30.30
2022-09-27T21:30:32.304Z,30.73
2022-09-27T21:35:35.008Z,31.90
2022-09-27T21:40:37.722Z,29.77
2022-09-27T21:45:40.268Z,30.30
2022-09-27T21:50:42.879Z,30.73
2022-09-27T21:55:54.398Z,27.48
2022-09-27T22:00:57.162Z,28.97
2022-09-27T22:06:00.187Z,26.60
2022-09-27T22:11:05.189Z,26.60
2022-09-27T22:16:08.832Z,27.05
2022-09-27T22:21:12.259Z,28.77
2022-09-27T22:26:19.642Z,27.00
2022-09-27T22:31:24.953Z,26.63
2022-09-27T22:36:28.174Z,26.15
2022-09-27T22:41:30.820Z,26.30
2022-09-27T22:46:33.894Z,26.23
2022-09-27T22:51:36.573Z,24.95
2022-09-27T22:56:39.423Z,24.65
2022-09-27T23:01:42.096Z,24.23
2022-09-27T23:06:44.844Z,24.60
2022-09-27T23:11:47.358Z,22.52
2022-09-27T23:16:49.955Z,21.23
2022-09-27T23:21:52.687Z,20.10
2022-09-27T23:27:13.699Z,18.53
2022-09-27T23:32:16.736Z,16.90
2022-09-27T23:37:19.540Z,17.23
2022-09-27T23:42:22.033Z,14.50
2022-09-27T23:47:24.871Z,14.50
2022-09-27T23:52:27.667Z,13.00
2022-09-27T23:57:30.953Z,10.60
